sensor_id;sensor_type;location;lat;lon;timestamp;P1;durP1;ratioP1;P2;durP2;ratioP2
71187;SDS011;58893;53.130;8.158;2023-05-10T00:00:53;13.23;;;7.87;;
71187;SDS011;58893;53.130;8.158;2023-05-10T00:03:19;11.80;;;7.93;;
71187;SDS011;58893;53.130;8.158;2023-05-10T00:05:44;16.13;;;7.73;;
71187;SDS011;58893;53.130;8.158;2023-05-10T00:08:10;11.33;;;7.40;;
71187;SDS011;58893;53.130;8.158;2023-05-10T00:10:36;12.30;;;8.10;;
71187;SDS011;58893;53.130;8.158;2023-05-10T00:13:02;12.40;;;7.20;;
71187;SDS011;58893;53.130;8.158;2023-05-10T00:15:28;14.70;;;8.70;;
71187;SDS011;58893;53.130;8.158;2023-05-10T00:17:55;11.20;;;6.90;;
71187;SDS011;58893;53.130;8.158;2023-05-10T00:20:21;13.80;;;7.90;;
71187;SDS011;58893;53.130;8.158;2023-05-10T00:22:47;11.47;;;7.23;;
71187;SDS011;58893;53.130;8.158;2023-05-10T00:25:13;12.50;;;8.33;;
71187;SDS011;58893;53.130;8.158;2023-05-10T00:27:38;14.30;;;8.80;;
71187;SDS011;58893;53.130;8.158;2023-05-10T00:30:04;14.73;;;8.57;;
71187;SDS011;58893;53.130;8.158;2023-05-10T00:32:31;10.43;;;7.20;;
71187;SDS011;58893;53.130;8.158;2023-05-10T00:34:56;11.77;;;7.47;;
71187;SDS011;58893;53.130;8.158;2023-05-10T00:37:22;11.77;;;7.17;;
71187;SDS011;58893;53.130;8.158;2023-05-10T00:39:48;13.20;;;7.90;;
71187;SDS011;58893;53.130;8.158;2023-05-10T00:42:13;11.33;;;7.30;;
71187;SDS011;58893;53.130;8.158;2023-05-10T00:44:39;12.87;;;7.47;;
71187;SDS011;58893;53.130;8.158;2023-05-10T00:47:05;11.80;;;7.40;;
71187;SDS011;58893;53.130;8.158;2023-05-10T00:49:30;16.17;;;8.47;;
71187;SDS011;58893;53.130;8.158;2023-05-10T00:51:56;11.50;;;7.30;;
71187;SDS011;58893;53.130;8.158;2023-05-10T00:54:22;11.60;;;7.80;;
71187;SDS011;58893;53.130;8.158;2023-05-10T00:56:48;11.67;;;7.90;;
71187;SDS011;58893;53.130;8.158;2023-05-10T00:59:17;10.90;;;7.40;;
71187;SDS011;58893;53.130;8.158;2023-05-10T01:01:43;11.10;;;7.20;;
71187;SDS011;58893;53.130;8.158;2023-05-10T01:04:12;10.63;;;7.13;;
71187;SDS011;58893;53.130;8.158;2023-05-10T01:06:39;11.27;;;7.80;;
71187;SDS011;58893;53.130;8.158;2023-05-10T01:09:06;12.23;;;6.77;;
71187;SDS011;58893;53.130;8.158;2023-05-10T01:11:34;11.40;;;7.10;;
71187;SDS011;58893;53.130;8.158;2023-05-10T01:14:01;12.67;;;7.73;;
71187;SDS011;58893;53.130;8.158;2023-05-10T01:16:27;14.47;;;8.60;;
71187;SDS011;58893;53.130;8.158;2023-05-10T01:18:57;13.20;;;7.90;;
71187;SDS011;58893;53.130;8.158;2023-05-10T01:21:33;12.90;;;8.23;;
71187;SDS011;58893;53.130;8.158;2023-05-10T01:38:43;12.27;;;7.03;;
71187;SDS011;58893;53.130;8.158;2023-05-10T01:47:07;17.03;;;7.20;;
71187;SDS011;58893;53.130;8.158;2023-05-10T01:49:53;11.40;;;7.30;;
71187;SDS011;58893;53.130;8.158;2023-05-10T01:52:28;10.77;;;7.40;;
71187;SDS011;58893;53.130;8.158;2023-05-10T01:55:01;11.87;;;7.20;;
71187;SDS011;58893;53.130;8.158;2023-05-10T01:57:33;10.03;;;6.27;;
71187;SDS011;58893;53.130;8.158;2023-05-10T02:00:04;14.47;;;7.53;;
71187;SDS011;58893;53.130;8.158;2023-05-10T02:02:34;17.03;;;6.80;;
71187;SDS011;58893;53.130;8.158;2023-05-10T02:05:07;11.60;;;7.10;;
71187;SDS011;58893;53.130;8.158;2023-05-10T02:07:34;11.30;;;6.67;;
71187;SDS011;58893;53.130;8.158;2023-05-10T02:10:02;11.27;;;6.70;;
71187;SDS011;58893;53.130;8.158;2023-05-10T02:12:35;12.17;;;7.47;;
71187;SDS011;58893;53.130;8.158;2023-05-10T02:15:03;8.00;;;6.23;;
71187;SDS011;58893;53.130;8.158;2023-05-10T02:17:34;9.23;;;6.50;;
71187;SDS011;58893;53.130;8.158;2023-05-10T02:20:02;13.97;;;7.90;;
71187;SDS011;58893;53.130;8.158;2023-05-10T02:22:29;10.27;;;6.77;;
71187;SDS011;58893;53.130;8.158;2023-05-10T02:24:57;9.93;;;7.40;;
71187;SDS011;58893;53.130;8.158;2023-05-10T02:27:23;13.80;;;7.47;;
71187;SDS011;58893;53.130;8.158;2023-05-10T02:29:51;17.83;;;7.70;;
71187;SDS011;58893;53.130;8.158;2023-05-10T02:32:17;12.87;;;8.67;;
71187;SDS011;58893;53.130;8.158;2023-05-10T02:34:44;18.43;;;8.43;;
71187;SDS011;58893;53.130;8.158;2023-05-10T02:37:16;15.20;;;8.83;;
71187;SDS011;58893;53.130;8.158;2023-05-10T02:39:47;13.43;;;8.90;;
71187;SDS011;58893;53.130;8.158;2023-05-10T02:42:16;12.43;;;8.13;;
71187;SDS011;58893;53.130;8.158;2023-05-10T02:44:43;12.43;;;8.50;;
71187;SDS011;58893;53.130;8.158;2023-05-10T02:47:12;19.23;;;9.97;;
71187;SDS011;58893;53.130;8.158;2023-05-10T02:49:38;14.73;;;8.90;;
71187;SDS011;58893;53.130;8.158;2023-05-10T02:52:04;22.17;;;11.30;;
71187;SDS011;58893;53.130;8.158;2023-05-10T02:54:38;16.27;;;10.27;;
71187;SDS011;58893;53.130;8.158;2023-05-10T02:57:08;16.87;;;10.00;;
71187;SDS011;58893;53.130;8.158;2023-05-10T02:59:40;20.37;;;9.90;;
71187;SDS011;58893;53.130;8.158;2023-05-10T03:02:07;18.50;;;10.37;;
71187;SDS011;58893;53.130;8.158;2023-05-10T03:04:34;15.60;;;9.60;;
71187;SDS011;58893;53.130;8.158;2023-05-10T03:06:59;17.37;;;10.13;;
71187;SDS011;58893;53.130;8.158;2023-05-10T03:09:26;16.40;;;9.70;;
71187;SDS011;58893;53.130;8.158;2023-05-10T03:12:07;15.30;;;9.73;;
71187;SDS011;58893;53.130;8.158;2023-05-10T03:18:15;18.23;;;10.37;;
71187;SDS011;58893;53.130;8.158;2023-05-10T03:20:42;13.80;;;8.80;;
71187;SDS011;58893;53.130;8.158;2023-05-10T03:25:42;14.70;;;8.97;;
71187;SDS011;58893;53.130;8.158;2023-05-10T03:28:09;17.37;;;10.00;;
71187;SDS011;58893;53.130;8.158;2023-05-10T03:30:35;16.63;;;10.00;;
71187;SDS011;58893;53.130;8.158;2023-05-10T03:33:05;22.10;;;12.73;;
71187;SDS011;58893;53.130;8.158;2023-05-10T03:35:33;20.20;;;12.77;;
71187;SDS011;58893;53.130;8.158;2023-05-10T03:37:59;13.33;;;7.53;;
71187;SDS011;58893;53.130;8.158;2023-05-10T03:40:25;10.63;;;6.53;;
71187;SDS011;58893;53.130;8.158;2023-05-10T03:42:53;7.30;;;4.50;;
71187;SDS011;58893;53.130;8.158;2023-05-10T03:45:20;5.43;;;3.40;;
71187;SDS011;58893;53.130;8.158;2023-05-10T03:47:45;4.67;;;3.40;;
71187;SDS011;58893;53.130;8.158;2023-05-10T03:50:11;6.10;;;3.60;;
71187;SDS011;58893;53.130;8.158;2023-05-10T03:52:36;4.90;;;2.90;;
71187;SDS011;58893;53.130;8.158;2023-05-10T03:55:04;4.53;;;3.30;;
71187;SDS011;58893;53.130;8.158;2023-05-10T03:57:30;6.97;;;3.50;;
71187;SDS011;58893;53.130;8.158;2023-05-10T03:59:56;4.30;;;3.20;;
71187;SDS011;58893;53.130;8.158;2023-05-10T04:02:21;4.87;;;3.50;;
71187;SDS011;58893;53.130;8.158;2023-05-10T04:04:47;5.03;;;3.37;;
71187;SDS011;58893;53.130;8.158;2023-05-10T04:07:13;5.07;;;3.33;;
71187;SDS011;58893;53.130;8.158;2023-05-10T04:09:39;5.43;;;3.40;;
71187;SDS011;58893;53.130;8.158;2023-05-10T04:12:04;7.30;;;3.93;;
71187;SDS011;58893;53.130;8.158;2023-05-10T04:14:30;6.73;;;4.47;;
71187;SDS011;58893;53.130;8.158;2023-05-10T04:16:56;6.00;;;4.07;;
71187;SDS011;58893;53.130;8.158;2023-05-10T04:19:22;6.37;;;4.00;;
71187;SDS011;58893;53.130;8.158;2023-05-10T04:21:48;5.30;;;3.50;;
71187;SDS011;58893;53.130;8.158;2023-05-10T04:24:13;6.77;;;4.17;;
71187;SDS011;58893;53.130;8.158;2023-05-10T04:26:39;6.57;;;4.30;;
71187;SDS011;58893;53.130;8.158;2023-05-10T04:29:05;5.87;;;4.13;;
71187;SDS011;58893;53.130;8.158;2023-05-10T04:31:31;5.90;;;4.37;;
71187;SDS011;58893;53.130;8.158;2023-05-10T04:33:57;9.30;;;5.13;;
71187;SDS011;58893;53.130;8.158;2023-05-10T04:36:22;9.37;;;5.33;;
71187;SDS011;58893;53.130;8.158;2023-05-10T04:38:48;10.90;;;6.10;;
71187;SDS011;58893;53.130;8.158;2023-05-10T04:41:14;9.67;;;4.93;;
71187;SDS011;58893;53.130;8.158;2023-05-10T04:43:39;15.50;;;6.87;;
71187;SDS011;58893;53.130;8.158;2023-05-10T04:46:05;17.27;;;8.03;;
71187;SDS011;58893;53.130;8.158;2023-05-10T04:48:32;11.53;;;5.53;;
71187;SDS011;58893;53.130;8.158;2023-05-10T04:50:58;8.73;;;4.23;;
71187;SDS011;58893;53.130;8.158;2023-05-10T04:53:24;6.70;;;3.80;;
71187;SDS011;58893;53.130;8.158;2023-05-10T04:55:50;7.23;;;3.70;;
71187;SDS011;58893;53.130;8.158;2023-05-10T04:58:16;5.60;;;3.00;;
71187;SDS011;58893;53.130;8.158;2023-05-10T05:00:41;7.20;;;4.33;;
71187;SDS011;58893;53.130;8.158;2023-05-10T05:03:07;4.00;;;2.70;;
71187;SDS011;58893;53.130;8.158;2023-05-10T05:05:33;3.20;;;2.30;;
71187;SDS011;58893;53.130;8.158;2023-05-10T05:07:58;3.87;;;2.70;;
71187;SDS011;58893;53.130;8.158;2023-05-10T05:10:24;4.40;;;2.80;;
71187;SDS011;58893;53.130;8.158;2023-05-10T05:12:50;4.03;;;2.57;;
71187;SDS011;58893;53.130;8.158;2023-05-10T05:15:15;3.43;;;2.27;;
71187;SDS011;58893;53.130;8.158;2023-05-10T05:17:42;2.33;;;1.90;;
71187;SDS011;58893;53.130;8.158;2023-05-10T05:20:08;4.40;;;2.93;;
71187;SDS011;58893;53.130;8.158;2023-05-10T05:22:35;14.90;;;3.13;;
71187;SDS011;58893;53.130;8.158;2023-05-10T05:25:01;4.60;;;2.90;;
71187;SDS011;58893;53.130;8.158;2023-05-10T05:27:28;4.43;;;2.83;;
71187;SDS011;58893;53.130;8.158;2023-05-10T05:29:57;6.30;;;2.77;;
71187;SDS011;58893;53.130;8.158;2023-05-10T05:32:23;5.20;;;3.70;;
71187;SDS011;58893;53.130;8.158;2023-05-10T05:34:49;4.80;;;3.57;;
71187;SDS011;58893;53.130;8.158;2023-05-10T05:37:16;6.00;;;3.90;;
71187;SDS011;58893;53.130;8.158;2023-05-10T05:39:46;7.67;;;4.60;;
71187;SDS011;58893;53.130;8.158;2023-05-10T05:42:13;8.27;;;4.57;;
71187;SDS011;58893;53.130;8.158;2023-05-10T05:44:41;5.80;;;3.80;;
71187;SDS011;58893;53.130;8.158;2023-05-10T05:47:07;6.30;;;4.27;;
71187;SDS011;58893;53.130;8.158;2023-05-10T05:49:32;5.90;;;3.97;;
71187;SDS011;58893;53.130;8.158;2023-05-10T05:52:02;8.03;;;4.40;;
71187;SDS011;58893;53.130;8.158;2023-05-10T05:54:28;6.10;;;3.77;;
71187;SDS011;58893;53.130;8.158;2023-05-10T05:56:55;7.37;;;4.67;;
71187;SDS011;58893;53.130;8.158;2023-05-10T05:59:24;6.07;;;3.90;;
71187;SDS011;58893;53.130;8.158;2023-05-10T06:01:50;6.27;;;4.00;;
71187;SDS011;58893;53.130;8.158;2023-05-10T06:04:16;7.00;;;4.67;;
71187;SDS011;58893;53.130;8.158;2023-05-10T06:06:42;6.53;;;4.60;;
71187;SDS011;58893;53.130;8.158;2023-05-10T06:09:08;8.50;;;4.90;;
71187;SDS011;58893;53.130;8.158;2023-05-10T06:11:34;6.63;;;4.30;;
71187;SDS011;58893;53.130;8.158;2023-05-10T06:14:00;8.67;;;5.30;;
71187;SDS011;58893;53.130;8.158;2023-05-10T06:16:26;7.90;;;5.00;;
71187;SDS011;58893;53.130;8.158;2023-05-10T06:18:52;8.77;;;4.43;;
71187;SDS011;58893;53.130;8.158;2023-05-10T06:21:18;8.50;;;5.20;;
71187;SDS011;58893;53.130;8.158;2023-05-10T06:23:44;7.07;;;4.50;;
71187;SDS011;58893;53.130;8.158;2023-05-10T06:26:10;8.33;;;5.23;;
71187;SDS011;58893;53.130;8.158;2023-05-10T06:28:35;6.57;;;4.83;;
71187;SDS011;58893;53.130;8.158;2023-05-10T06:31:04;6.17;;;4.47;;
71187;SDS011;58893;53.130;8.158;2023-05-10T06:33:30;8.27;;;5.40;;
71187;SDS011;58893;53.130;8.158;2023-05-10T06:35:56;8.27;;;5.80;;
71187;SDS011;58893;53.130;8.158;2023-05-10T06:38:22;7.73;;;4.57;;
71187;SDS011;58893;53.130;8.158;2023-05-10T06:40:47;7.30;;;5.00;;
71187;SDS011;58893;53.130;8.158;2023-05-10T06:43:13;8.97;;;5.17;;
71187;SDS011;58893;53.130;8.158;2023-05-10T06:45:39;6.73;;;4.67;;
71187;SDS011;58893;53.130;8.158;2023-05-10T06:48:05;7.90;;;5.20;;
71187;SDS011;58893;53.130;8.158;2023-05-10T06:50:32;8.80;;;5.20;;
71187;SDS011;58893;53.130;8.158;2023-05-10T06:52:58;9.53;;;5.00;;
71187;SDS011;58893;53.130;8.158;2023-05-10T06:55:24;9.93;;;5.30;;
71187;SDS011;58893;53.130;8.158;2023-05-10T06:57:51;8.37;;;5.33;;
71187;SDS011;58893;53.130;8.158;2023-05-10T07:00:17;7.57;;;4.80;;
71187;SDS011;58893;53.130;8.158;2023-05-10T07:02:43;9.10;;;4.80;;
71187;SDS011;58893;53.130;8.158;2023-05-10T07:05:09;9.80;;;5.30;;
71187;SDS011;58893;53.130;8.158;2023-05-10T07:07:34;7.27;;;5.37;;
71187;SDS011;58893;53.130;8.158;2023-05-10T07:10:00;7.87;;;5.00;;
71187;SDS011;58893;53.130;8.158;2023-05-10T07:12:26;6.40;;;4.50;;
71187;SDS011;58893;53.130;8.158;2023-05-10T07:14:52;10.00;;;5.30;;
71187;SDS011;58893;53.130;8.158;2023-05-10T07:17:18;8.77;;;5.50;;
71187;SDS011;58893;53.130;8.158;2023-05-10T07:19:43;8.77;;;5.43;;
71187;SDS011;58893;53.130;8.158;2023-05-10T07:22:09;8.00;;;4.93;;
71187;SDS011;58893;53.130;8.158;2023-05-10T07:24:35;9.50;;;5.80;;
71187;SDS011;58893;53.130;8.158;2023-05-10T07:27:01;9.17;;;5.10;;
71187;SDS011;58893;53.130;8.158;2023-05-10T07:29:26;6.20;;;4.73;;
71187;SDS011;58893;53.130;8.158;2023-05-10T07:31:53;7.17;;;5.20;;
71187;SDS011;58893;53.130;8.158;2023-05-10T07:34:19;8.87;;;4.63;;
71187;SDS011;58893;53.130;8.158;2023-05-10T07:36:44;8.43;;;4.70;;
71187;SDS011;58893;53.130;8.158;2023-05-10T07:39:10;8.60;;;4.50;;
71187;SDS011;58893;53.130;8.158;2023-05-10T07:41:36;7.63;;;4.90;;
71187;SDS011;58893;53.130;8.158;2023-05-10T07:44:02;9.53;;;3.70;;
71187;SDS011;58893;53.130;8.158;2023-05-10T07:46:28;11.90;;;4.50;;
71187;SDS011;58893;53.130;8.158;2023-05-10T07:48:54;10.00;;;3.47;;
71187;SDS011;58893;53.130;8.158;2023-05-10T07:51:20;4.13;;;3.37;;
71187;SDS011;58893;53.130;8.158;2023-05-10T07:53:46;5.27;;;3.60;;
71187;SDS011;58893;53.130;8.158;2023-05-10T07:56:22;6.33;;;4.40;;
71187;SDS011;58893;53.130;8.158;2023-05-10T07:58:55;5.03;;;4.10;;
71187;SDS011;58893;53.130;8.158;2023-05-10T08:01:21;8.87;;;3.60;;
71187;SDS011;58893;53.130;8.158;2023-05-10T08:03:47;3.80;;;2.73;;
71187;SDS011;58893;53.130;8.158;2023-05-10T08:06:14;4.10;;;3.20;;
71187;SDS011;58893;53.130;8.158;2023-05-10T08:08:40;4.17;;;2.70;;
71187;SDS011;58893;53.130;8.158;2023-05-10T08:11:06;5.07;;;3.20;;
71187;SDS011;58893;53.130;8.158;2023-05-10T08:13:32;3.90;;;2.70;;
71187;SDS011;58893;53.130;8.158;2023-05-10T08:15:57;3.67;;;2.70;;
71187;SDS011;58893;53.130;8.158;2023-05-10T08:18:23;3.50;;;3.10;;
71187;SDS011;58893;53.130;8.158;2023-05-10T08:20:49;3.97;;;2.40;;
71187;SDS011;58893;53.130;8.158;2023-05-10T08:23:14;7.37;;;3.20;;
71187;SDS011;58893;53.130;8.158;2023-05-10T08:25:40;4.47;;;2.90;;
71187;SDS011;58893;53.130;8.158;2023-05-10T08:28:06;7.00;;;2.83;;
71187;SDS011;58893;53.130;8.158;2023-05-10T08:30:31;4.20;;;2.60;;
71187;SDS011;58893;53.130;8.158;2023-05-10T08:32:57;3.70;;;2.67;;
71187;SDS011;58893;53.130;8.158;2023-05-10T08:35:23;4.70;;;2.63;;
71187;SDS011;58893;53.130;8.158;2023-05-10T08:37:49;2.70;;;2.30;;
71187;SDS011;58893;53.130;8.158;2023-05-10T08:40:15;5.83;;;2.23;;
71187;SDS011;58893;53.130;8.158;2023-05-10T08:42:45;6.17;;;3.07;;
71187;SDS011;58893;53.130;8.158;2023-05-10T08:45:16;9.83;;;2.87;;
71187;SDS011;58893;53.130;8.158;2023-05-10T08:47:44;5.73;;;3.03;;
71187;SDS011;58893;53.130;8.158;2023-05-10T08:50:10;4.20;;;3.20;;
71187;SDS011;58893;53.130;8.158;2023-05-10T08:52:37;4.43;;;3.30;;
71187;SDS011;58893;53.130;8.158;2023-05-10T08:55:05;6.80;;;3.87;;
71187;SDS011;58893;53.130;8.158;2023-05-10T08:57:31;7.13;;;3.50;;
71187;SDS011;58893;53.130;8.158;2023-05-10T08:59:57;5.10;;;3.63;;
71187;SDS011;58893;53.130;8.158;2023-05-10T09:02:24;6.63;;;2.93;;
71187;SDS011;58893;53.130;8.158;2023-05-10T09:04:50;11.13;;;3.80;;
71187;SDS011;58893;53.130;8.158;2023-05-10T09:07:16;4.43;;;2.87;;
71187;SDS011;58893;53.130;8.158;2023-05-10T09:09:42;7.30;;;3.43;;
71187;SDS011;58893;53.130;8.158;2023-05-10T09:12:08;20.57;;;3.70;;
71187;SDS011;58893;53.130;8.158;2023-05-10T09:14:36;4.60;;;3.17;;
71187;SDS011;58893;53.130;8.158;2023-05-10T09:17:03;8.00;;;3.70;;
71187;SDS011;58893;53.130;8.158;2023-05-10T09:19:29;5.33;;;3.30;;
71187;SDS011;58893;53.130;8.158;2023-05-10T09:21:55;4.73;;;3.40;;
71187;SDS011;58893;53.130;8.158;2023-05-10T09:24:24;8.47;;;3.67;;
71187;SDS011;58893;53.130;8.158;2023-05-10T09:26:51;11.47;;;3.60;;
71187;SDS011;58893;53.130;8.158;2023-05-10T09:29:17;5.53;;;3.30;;
71187;SDS011;58893;53.130;8.158;2023-05-10T09:31:43;4.00;;;3.37;;
71187;SDS011;58893;53.130;8.158;2023-05-10T09:34:19;3.87;;;2.80;;
71187;SDS011;58893;53.130;8.158;2023-05-10T09:36:54;4.40;;;3.00;;
71187;SDS011;58893;53.130;8.158;2023-05-10T09:42:04;3.40;;;2.40;;
71187;SDS011;58893;53.130;8.158;2023-05-10T09:44:31;3.43;;;2.57;;
71187;SDS011;58893;53.130;8.158;2023-05-10T09:46:58;2.13;;;1.77;;
71187;SDS011;58893;53.130;8.158;2023-05-10T09:49:23;2.60;;;1.63;;
71187;SDS011;58893;53.130;8.158;2023-05-10T09:52:05;1.53;;;1.43;;
71187;SDS011;58893;53.130;8.158;2023-05-10T09:54:32;5.80;;;2.13;;
71187;SDS011;58893;53.130;8.158;2023-05-10T09:56:58;7.23;;;1.90;;
71187;SDS011;58893;53.130;8.158;2023-05-10T09:59:25;2.17;;;1.50;;
71187;SDS011;58893;53.130;8.158;2023-05-10T10:01:52;1.50;;;1.40;;
71187;SDS011;58893;53.130;8.158;2023-05-10T10:04:20;2.00;;;1.30;;
71187;SDS011;58893;53.130;8.158;2023-05-10T10:06:46;1.60;;;1.50;;
71187;SDS011;58893;53.130;8.158;2023-05-10T10:09:22;1.60;;;1.50;;
71187;SDS011;58893;53.130;8.158;2023-05-10T10:11:49;1.53;;;0.90;;
71187;SDS011;58893;53.130;8.158;2023-05-10T10:14:16;2.13;;;0.93;;
71187;SDS011;58893;53.130;8.158;2023-05-10T10:16:46;1.83;;;0.90;;
71187;SDS011;58893;53.130;8.158;2023-05-10T10:19:13;1.13;;;0.80;;
71187;SDS011;58893;53.130;8.158;2023-05-10T10:21:40;0.50;;;0.50;;
71187;SDS011;58893;53.130;8.158;2023-05-10T10:24:05;0.60;;;0.57;;
71187;SDS011;58893;53.130;8.158;2023-05-10T10:26:34;0.80;;;0.70;;
71187;SDS011;58893;53.130;8.158;2023-05-10T10:29:15;0.77;;;0.70;;
71187;SDS011;58893;53.130;8.158;2023-05-10T10:32:38;2.40;;;0.80;;
71187;SDS011;58893;53.130;8.158;2023-05-10T10:34:55;0.77;;;0.77;;
71187;SDS011;58893;53.130;8.158;2023-05-10T10:37:21;0.60;;;0.60;;
71187;SDS011;58893;53.130;8.158;2023-05-10T10:39:48;0.57;;;0.57;;
71187;SDS011;58893;53.130;8.158;2023-05-10T10:42:15;0.87;;;0.70;;
71187;SDS011;58893;53.130;8.158;2023-05-10T10:45:19;0.70;;;0.70;;
71187;SDS011;58893;53.130;8.158;2023-05-10T10:47:46;0.80;;;0.70;;
71187;SDS011;58893;53.130;8.158;2023-05-10T10:50:11;0.60;;;0.60;;
71187;SDS011;58893;53.130;8.158;2023-05-10T10:52:43;0.70;;;0.70;;
71187;SDS011;58893;53.130;8.158;2023-05-10T10:55:13;0.80;;;0.73;;
71187;SDS011;58893;53.130;8.158;2023-05-10T11:00:26;0.60;;;0.50;;
71187;SDS011;58893;53.130;8.158;2023-05-10T11:02:56;0.63;;;0.60;;
71187;SDS011;58893;53.130;8.158;2023-05-10T11:05:41;0.80;;;0.50;;
71187;SDS011;58893;53.130;8.158;2023-05-10T11:11:06;0.80;;;0.70;;
71187;SDS011;58893;53.130;8.158;2023-05-10T11:13:33;1.43;;;0.70;;
71187;SDS011;58893;53.130;8.158;2023-05-10T11:15:59;0.80;;;0.77;;
71187;SDS011;58893;53.130;8.158;2023-05-10T11:18:38;1.93;;;1.00;;
71187;SDS011;58893;53.130;8.158;2023-05-10T11:21:04;2.17;;;1.57;;
71187;SDS011;58893;53.130;8.158;2023-05-10T11:23:49;3.23;;;2.00;;
71187;SDS011;58893;53.130;8.158;2023-05-10T11:26:16;6.13;;;4.03;;
71187;SDS011;58893;53.130;8.158;2023-05-10T11:28:45;5.70;;;3.33;;
71187;SDS011;58893;53.130;8.158;2023-05-10T11:31:18;6.57;;;4.00;;
71187;SDS011;58893;53.130;8.158;2023-05-10T11:33:49;7.57;;;4.43;;
71187;SDS011;58893;53.130;8.158;2023-05-10T11:36:29;7.40;;;4.53;;
71187;SDS011;58893;53.130;8.158;2023-05-10T11:38:58;9.60;;;5.37;;
71187;SDS011;58893;53.130;8.158;2023-05-10T11:41:24;7.10;;;4.60;;
71187;SDS011;58893;53.130;8.158;2023-05-10T11:43:54;8.60;;;5.83;;
71187;SDS011;58893;53.130;8.158;2023-05-10T11:46:21;9.70;;;6.27;;
71187;SDS011;58893;53.130;8.158;2023-05-10T11:48:52;10.33;;;6.33;;
71187;SDS011;58893;53.130;8.158;2023-05-10T11:51:20;10.90;;;6.50;;
71187;SDS011;58893;53.130;8.158;2023-05-10T11:53:53;10.87;;;6.30;;
71187;SDS011;58893;53.130;8.158;2023-05-10T11:56:19;9.37;;;5.70;;
71187;SDS011;58893;53.130;8.158;2023-05-10T11:58:47;8.87;;;5.80;;
71187;SDS011;58893;53.130;8.158;2023-05-10T12:01:21;13.40;;;6.93;;
71187;SDS011;58893;53.130;8.158;2023-05-10T12:03:48;9.53;;;5.80;;
71187;SDS011;58893;53.130;8.158;2023-05-10T12:06:15;10.43;;;5.93;;
71187;SDS011;58893;53.130;8.158;2023-05-10T12:08:43;11.50;;;5.90;;
71187;SDS011;58893;53.130;8.158;2023-05-10T12:11:12;8.57;;;5.33;;
71187;SDS011;58893;53.130;8.158;2023-05-10T12:13:40;8.50;;;5.40;;
71187;SDS011;58893;53.130;8.158;2023-05-10T12:16:21;8.67;;;5.37;;
71187;SDS011;58893;53.130;8.158;2023-05-10T12:18:49;7.87;;;5.60;;
71187;SDS011;58893;53.130;8.158;2023-05-10T12:21:18;6.40;;;4.60;;
71187;SDS011;58893;53.130;8.158;2023-05-10T12:23:52;9.63;;;6.00;;
71187;SDS011;58893;53.130;8.158;2023-05-10T12:26:25;5.80;;;4.20;;
71187;SDS011;58893;53.130;8.158;2023-05-10T12:28:53;9.40;;;6.03;;
71187;SDS011;58893;53.130;8.158;2023-05-10T12:31:19;10.90;;;6.23;;
71187;SDS011;58893;53.130;8.158;2023-05-10T12:33:44;6.60;;;4.77;;
71187;SDS011;58893;53.130;8.158;2023-05-10T12:36:12;9.30;;;5.90;;
71187;SDS011;58893;53.130;8.158;2023-05-10T12:38:40;6.83;;;5.00;;
71187;SDS011;58893;53.130;8.158;2023-05-10T12:41:14;6.90;;;4.90;;
71187;SDS011;58893;53.130;8.158;2023-05-10T12:43:41;6.77;;;4.70;;
71187;SDS011;58893;53.130;8.158;2023-05-10T12:46:11;6.73;;;4.70;;
71187;SDS011;58893;53.130;8.158;2023-05-10T12:48:42;6.90;;;4.70;;
71187;SDS011;58893;53.130;8.158;2023-05-10T12:51:08;6.30;;;4.70;;
71187;SDS011;58893;53.130;8.158;2023-05-10T12:53:36;6.20;;;3.97;;
71187;SDS011;58893;53.130;8.158;2023-05-10T12:56:02;11.00;;;4.37;;
71187;SDS011;58893;53.130;8.158;2023-05-10T12:58:28;6.50;;;4.73;;
71187;SDS011;58893;53.130;8.158;2023-05-10T13:00:54;5.60;;;4.30;;
71187;SDS011;58893;53.130;8.158;2023-05-10T13:03:21;6.23;;;4.40;;
71187;SDS011;58893;53.130;8.158;2023-05-10T13:05:47;6.63;;;4.37;;
71187;SDS011;58893;53.130;8.158;2023-05-10T13:08:13;5.47;;;4.07;;
71187;SDS011;58893;53.130;8.158;2023-05-10T13:10:38;6.23;;;4.10;;
71187;SDS011;58893;53.130;8.158;2023-05-10T13:13:05;5.43;;;3.67;;
71187;SDS011;58893;53.130;8.158;2023-05-10T13:15:32;4.10;;;3.57;;
71187;SDS011;58893;53.130;8.158;2023-05-10T13:17:58;5.93;;;3.70;;
71187;SDS011;58893;53.130;8.158;2023-05-10T13:20:23;3.30;;;2.60;;
71187;SDS011;58893;53.130;8.158;2023-05-10T13:22:50;4.33;;;2.70;;
71187;SDS011;58893;53.130;8.158;2023-05-10T13:25:15;6.00;;;2.33;;
71187;SDS011;58893;53.130;8.158;2023-05-10T13:27:41;3.40;;;2.90;;
71187;SDS011;58893;53.130;8.158;2023-05-10T13:30:07;3.70;;;2.30;;
71187;SDS011;58893;53.130;8.158;2023-05-10T13:32:34;7.10;;;2.27;;
71187;SDS011;58893;53.130;8.158;2023-05-10T13:35:00;8.23;;;2.40;;
71187;SDS011;58893;53.130;8.158;2023-05-10T13:37:28;9.33;;;2.30;;
71187;SDS011;58893;53.130;8.158;2023-05-10T13:39:54;2.87;;;2.40;;
71187;SDS011;58893;53.130;8.158;2023-05-10T13:42:21;2.73;;;2.27;;
71187;SDS011;58893;53.130;8.158;2023-05-10T13:44:48;3.30;;;2.30;;
71187;SDS011;58893;53.130;8.158;2023-05-10T13:47:13;2.63;;;2.10;;
71187;SDS011;58893;53.130;8.158;2023-05-10T13:49:39;2.53;;;2.33;;
71187;SDS011;58893;53.130;8.158;2023-05-10T13:52:05;2.90;;;2.40;;
71187;SDS011;58893;53.130;8.158;2023-05-10T13:54:31;3.00;;;2.30;;
71187;SDS011;58893;53.130;8.158;2023-05-10T13:56:58;3.73;;;2.70;;
71187;SDS011;58893;53.130;8.158;2023-05-10T13:59:24;2.70;;;2.20;;
71187;SDS011;58893;53.130;8.158;2023-05-10T14:01:49;2.77;;;2.37;;
71187;SDS011;58893;53.130;8.158;2023-05-10T14:04:15;8.03;;;2.27;;
71187;SDS011;58893;53.130;8.158;2023-05-10T14:06:41;2.53;;;2.30;;
71187;SDS011;58893;53.130;8.158;2023-05-10T14:09:06;1.90;;;1.80;;
71187;SDS011;58893;53.130;8.158;2023-05-10T14:11:32;2.10;;;1.90;;
71187;SDS011;58893;53.130;8.158;2023-05-10T14:13:58;4.10;;;2.03;;
71187;SDS011;58893;53.130;8.158;2023-05-10T14:16:23;2.20;;;2.00;;
71187;SDS011;58893;53.130;8.158;2023-05-10T14:18:49;5.50;;;1.47;;
71187;SDS011;58893;53.130;8.158;2023-05-10T14:21:14;2.53;;;1.97;;
71187;SDS011;58893;53.130;8.158;2023-05-10T14:23:40;2.83;;;2.20;;
71187;SDS011;58893;53.130;8.158;2023-05-10T14:26:06;7.10;;;2.30;;
71187;SDS011;58893;53.130;8.158;2023-05-10T14:28:31;2.47;;;1.93;;
71187;SDS011;58893;53.130;8.158;2023-05-10T14:30:57;2.90;;;2.50;;
71187;SDS011;58893;53.130;8.158;2023-05-10T14:33:23;4.37;;;2.10;;
71187;SDS011;58893;53.130;8.158;2023-05-10T14:35:49;1.60;;;1.50;;
71187;SDS011;58893;53.130;8.158;2023-05-10T14:38:15;1.80;;;1.70;;
71187;SDS011;58893;53.130;8.158;2023-05-10T14:40:41;2.23;;;1.80;;
71187;SDS011;58893;53.130;8.158;2023-05-10T14:43:07;2.30;;;1.87;;
71187;SDS011;58893;53.130;8.158;2023-05-10T14:45:33;2.93;;;1.80;;
71187;SDS011;58893;53.130;8.158;2023-05-10T14:47:59;2.90;;;1.50;;
71187;SDS011;58893;53.130;8.158;2023-05-10T14:50:25;3.00;;;1.53;;
71187;SDS011;58893;53.130;8.158;2023-05-10T14:52:51;1.60;;;1.43;;
71187;SDS011;58893;53.130;8.158;2023-05-10T14:55:18;1.67;;;1.10;;
71187;SDS011;58893;53.130;8.158;2023-05-10T14:57:43;3.63;;;1.40;;
71187;SDS011;58893;53.130;8.158;2023-05-10T15:00:11;1.43;;;1.30;;
71187;SDS011;58893;53.130;8.158;2023-05-10T15:02:37;11.10;;;1.80;;
71187;SDS011;58893;53.130;8.158;2023-05-10T15:05:03;1.57;;;1.27;;
71187;SDS011;58893;53.130;8.158;2023-05-10T15:07:29;5.43;;;1.37;;
71187;SDS011;58893;53.130;8.158;2023-05-10T15:09:56;1.67;;;1.53;;
71187;SDS011;58893;53.130;8.158;2023-05-10T15:12:21;1.30;;;1.20;;
71187;SDS011;58893;53.130;8.158;2023-05-10T15:14:47;1.80;;;1.60;;
71187;SDS011;58893;53.130;8.158;2023-05-10T15:17:13;2.37;;;1.60;;
71187;SDS011;58893;53.130;8.158;2023-05-10T15:19:38;2.27;;;1.43;;